sensor_id;sensor_type;location;lat;lon;timestamp;P1;durP1;ratioP1;P2;durP2;ratioP2
77076;SDS011;66003;52.286;104.306;2023-04-01T00:00:55;7.20;;;2.03;;
77076;SDS011;66003;52.286;104.306;2023-04-01T00:03:23;10.70;;;2.60;;
77076;SDS011;66003;52.286;104.306;2023-04-01T00:05:51;7.57;;;2.08;;
77076;SDS011;66003;52.286;104.306;2023-04-01T00:08:17;11.20;;;2.78;;
77076;SDS011;66003;52.286;104.306;2023-04-01T00:10:43;14.77;;;2.33;;
77076;SDS011;66003;52.286;104.306;2023-04-01T00:13:09;8.48;;;2.00;;
77076;SDS011;66003;52.286;104.306;2023-04-01T00:15:36;7.85;;;2.38;;
77076;SDS011;66003;52.286;104.306;2023-04-01T00:18:02;6.80;;;2.63;;
77076;SDS011;66003;52.286;104.306;2023-04-01T00:20:29;7.72;;;2.35;;
77076;SDS011;66003;52.286;104.306;2023-04-01T00:22:55;4.55;;;2.28;;
77076;SDS011;66003;52.286;104.306;2023-04-01T00:25:21;7.43;;;2.40;;
77076;SDS011;66003;52.286;104.306;2023-04-01T00:27:48;5.90;;;2.20;;
77076;SDS011;66003;52.286;104.306;2023-04-01T00:30:15;8.95;;;2.92;;
77076;SDS011;66003;52.286;104.306;2023-04-01T00:32:42;7.28;;;2.20;;
77076;SDS011;66003;52.286;104.306;2023-04-01T00:35:08;6.57;;;1.77;;
77076;SDS011;66003;52.286;104.306;2023-04-01T00:37:36;5.78;;;1.98;;
77076;SDS011;66003;52.286;104.306;2023-04-01T00:40:06;5.78;;;2.05;;
77076;SDS011;66003;52.286;104.306;2023-04-01T00:42:33;7.78;;;2.22;;
77076;SDS011;66003;52.286;104.306;2023-04-01T00:45:21;8.35;;;1.83;;
77076;SDS011;66003;52.286;104.306;2023-04-01T00:47:54;7.30;;;2.45;;
77076;SDS011;66003;52.286;104.306;2023-04-01T00:50:21;10.82;;;2.58;;
77076;SDS011;66003;52.286;104.306;2023-04-01T00:52:50;7.63;;;2.42;;
77076;SDS011;66003;52.286;104.306;2023-04-01T00:55:18;10.23;;;3.28;;
77076;SDS011;66003;52.286;104.306;2023-04-01T00:57:47;9.18;;;2.05;;
77076;SDS011;66003;52.286;104.306;2023-04-01T01:00:15;4.57;;;1.88;;
77076;SDS011;66003;52.286;104.306;2023-04-01T01:02:45;9.77;;;2.80;;
77076;SDS011;66003;52.286;104.306;2023-04-01T01:05:15;6.32;;;1.95;;
77076;SDS011;66003;52.286;104.306;2023-04-01T01:07:46;9.57;;;3.00;;
77076;SDS011;66003;52.286;104.306;2023-04-01T01:10:44;4.95;;;1.45;;
77076;SDS011;66003;52.286;104.306;2023-04-01T01:15:59;13.13;;;2.67;;
77076;SDS011;66003;52.286;104.306;2023-04-01T01:37:16;8.00;;;1.83;;
77076;SDS011;66003;52.286;104.306;2023-04-01T01:39:46;6.20;;;1.45;;
77076;SDS011;66003;52.286;104.306;2023-04-01T01:43:06;4.03;;;1.45;;
77076;SDS011;66003;52.286;104.306;2023-04-01T01:45:40;6.65;;;1.40;;
77076;SDS011;66003;52.286;104.306;2023-04-01T01:48:10;4.60;;;1.40;;
77076;SDS011;66003;52.286;104.306;2023-04-01T01:50:37;8.90;;;1.92;;
77076;SDS011;66003;52.286;104.306;2023-04-01T01:53:06;5.47;;;1.73;;
77076;SDS011;66003;52.286;104.306;2023-04-01T01:55:36;5.65;;;1.55;;
77076;SDS011;66003;52.286;104.306;2023-04-01T01:58:31;5.82;;;1.15;;
77076;SDS011;66003;52.286;104.306;2023-04-01T02:01:06;9.32;;;2.63;;
77076;SDS011;66003;52.286;104.306;2023-04-01T02:03:37;6.72;;;1.88;;
77076;SDS011;66003;52.286;104.306;2023-04-01T02:06:07;10.20;;;1.65;;
77076;SDS011;66003;52.286;104.306;2023-04-01T02:11:07;8.80;;;2.03;;
77076;SDS011;66003;52.286;104.306;2023-04-01T02:16:13;6.05;;;1.42;;
77076;SDS011;66003;52.286;104.306;2023-04-01T02:18:48;8.07;;;1.80;;
77076;SDS011;66003;52.286;104.306;2023-04-01T02:21:18;11.95;;;1.55;;
77076;SDS011;66003;52.286;104.306;2023-04-01T02:23:48;4.93;;;1.50;;
77076;SDS011;66003;52.286;104.306;2023-04-01T02:26:17;6.05;;;1.35;;
77076;SDS011;66003;52.286;104.306;2023-04-01T02:28:44;6.07;;;1.52;;
77076;SDS011;66003;52.286;104.306;2023-04-01T02:31:12;7.38;;;2.10;;
77076;SDS011;66003;52.286;104.306;2023-04-01T02:33:40;6.22;;;2.03;;
77076;SDS011;66003;52.286;104.306;2023-04-01T02:36:10;7.38;;;1.80;;
77076;SDS011;66003;52.286;104.306;2023-04-01T02:38:38;5.72;;;1.88;;
77076;SDS011;66003;52.286;104.306;2023-04-01T02:41:05;3.67;;;1.48;;
77076;SDS011;66003;52.286;104.306;2023-04-01T02:43:32;3.25;;;0.95;;
77076;SDS011;66003;52.286;104.306;2023-04-01T02:45:59;4.43;;;1.40;;
77076;SDS011;66003;52.286;104.306;2023-04-01T02:48:25;2.65;;;0.77;;
77076;SDS011;66003;52.286;104.306;2023-04-01T02:50:55;2.53;;;0.82;;
77076;SDS011;66003;52.286;104.306;2023-04-01T02:53:30;6.32;;;1.77;;
77076;SDS011;66003;52.286;104.306;2023-04-01T02:58:26;4.60;;;1.20;;
77076;SDS011;66003;52.286;104.306;2023-04-01T03:00:52;3.63;;;0.93;;
77076;SDS011;66003;52.286;104.306;2023-04-01T03:03:19;4.63;;;1.20;;
77076;SDS011;66003;52.286;104.306;2023-04-01T03:05:45;5.07;;;1.40;;
77076;SDS011;66003;52.286;104.306;2023-04-01T03:08:11;2.28;;;1.45;;
77076;SDS011;66003;52.286;104.306;2023-04-01T03:10:37;2.72;;;0.73;;
77076;SDS011;66003;52.286;104.306;2023-04-01T03:13:04;2.40;;;0.82;;
77076;SDS011;66003;52.286;104.306;2023-04-01T03:15:30;2.10;;;0.95;;
77076;SDS011;66003;52.286;104.306;2023-04-01T03:17:56;2.08;;;0.52;;
77076;SDS011;66003;52.286;104.306;2023-04-01T03:20:23;1.73;;;0.85;;
77076;SDS011;66003;52.286;104.306;2023-04-01T03:22:49;3.97;;;1.13;;
77076;SDS011;66003;52.286;104.306;2023-04-01T03:25:15;1.38;;;0.63;;
77076;SDS011;66003;52.286;104.306;2023-04-01T03:27:42;1.75;;;0.50;;
77076;SDS011;66003;52.286;104.306;2023-04-01T03:30:08;1.83;;;0.77;;
77076;SDS011;66003;52.286;104.306;2023-04-01T03:32:34;1.70;;;0.65;;
77076;SDS011;66003;52.286;104.306;2023-04-01T03:35:01;1.08;;;0.70;;
77076;SDS011;66003;52.286;104.306;2023-04-01T03:37:28;2.63;;;0.32;;
77076;SDS011;66003;52.286;104.306;2023-04-01T03:39:55;1.48;;;0.52;;
77076;SDS011;66003;52.286;104.306;2023-04-01T03:42:22;1.95;;;0.55;;
77076;SDS011;66003;52.286;104.306;2023-04-01T03:44:50;1.35;;;0.47;;
77076;SDS011;66003;52.286;104.306;2023-04-01T03:47:16;2.95;;;0.93;;
77076;SDS011;66003;52.286;104.306;2023-04-01T03:49:42;1.52;;;0.75;;
77076;SDS011;66003;52.286;104.306;2023-04-01T03:52:10;1.30;;;0.50;;
77076;SDS011;66003;52.286;104.306;2023-04-01T03:54:36;2.80;;;1.23;;
77076;SDS011;66003;52.286;104.306;2023-04-01T03:57:03;4.38;;;0.80;;
77076;SDS011;66003;52.286;104.306;2023-04-01T03:59:29;1.10;;;0.55;;
77076;SDS011;66003;52.286;104.306;2023-04-01T04:01:55;2.33;;;1.02;;
77076;SDS011;66003;52.286;104.306;2023-04-01T04:04:21;0.82;;;0.52;;
77076;SDS011;66003;52.286;104.306;2023-04-01T04:06:47;1.20;;;0.50;;
77076;SDS011;66003;52.286;104.306;2023-04-01T04:09:14;2.08;;;0.57;;
77076;SDS011;66003;52.286;104.306;2023-04-01T04:11:40;0.95;;;0.68;;
77076;SDS011;66003;52.286;104.306;2023-04-01T04:14:06;2.70;;;0.50;;
77076;SDS011;66003;52.286;104.306;2023-04-01T04:16:34;2.33;;;0.35;;
77076;SDS011;66003;52.286;104.306;2023-04-01T04:19:04;1.45;;;0.43;;
77076;SDS011;66003;52.286;104.306;2023-04-01T04:21:33;2.30;;;0.95;;
77076;SDS011;66003;52.286;104.306;2023-04-01T04:24:00;1.33;;;0.77;;
77076;SDS011;66003;52.286;104.306;2023-04-01T04:26:27;1.30;;;0.88;;
77076;SDS011;66003;52.286;104.306;2023-04-01T04:28:53;1.80;;;0.57;;
77076;SDS011;66003;52.286;104.306;2023-04-01T04:33:50;1.45;;;1.35;;
77076;SDS011;66003;52.286;104.306;2023-04-01T04:36:18;2.90;;;0.77;;
77076;SDS011;66003;52.286;104.306;2023-04-01T04:41:11;0.75;;;0.75;;
77076;SDS011;66003;52.286;104.306;2023-04-01T04:43:48;1.05;;;0.95;;
77076;SDS011;66003;52.286;104.306;2023-04-01T04:46:16;1.50;;;1.17;;
77076;SDS011;66003;52.286;104.306;2023-04-01T04:48:42;1.60;;;0.75;;
77076;SDS011;66003;52.286;104.306;2023-04-01T04:51:12;2.28;;;0.68;;
77076;SDS011;66003;52.286;104.306;2023-04-01T04:53:40;1.30;;;0.70;;
77076;SDS011;66003;52.286;104.306;2023-04-01T04:56:06;2.17;;;1.40;;
77076;SDS011;66003;52.286;104.306;2023-04-01T04:58:32;0.90;;;0.73;;
77076;SDS011;66003;52.286;104.306;2023-04-01T05:00:59;1.42;;;0.50;;
77076;SDS011;66003;52.286;104.306;2023-04-01T05:03:40;1.17;;;0.98;;
77076;SDS011;66003;52.286;104.306;2023-04-01T05:06:07;2.75;;;1.23;;
77076;SDS011;66003;52.286;104.306;2023-04-01T05:08:35;3.03;;;0.75;;
77076;SDS011;66003;52.286;104.306;2023-04-01T05:11:06;4.65;;;0.90;;
77076;SDS011;66003;52.286;104.306;2023-04-01T05:13:37;2.85;;;0.50;;
77076;SDS011;66003;52.286;104.306;2023-04-01T05:16:08;0.63;;;0.63;;
77076;SDS011;66003;52.286;104.306;2023-04-01T05:18:36;1.88;;;0.60;;
77076;SDS011;66003;52.286;104.306;2023-04-01T05:21:02;1.88;;;0.55;;
77076;SDS011;66003;52.286;104.306;2023-04-01T05:23:30;1.05;;;0.82;;
77076;SDS011;66003;52.286;104.306;2023-04-01T05:25:57;1.98;;;0.65;;
77076;SDS011;66003;52.286;104.306;2023-04-01T05:28:23;1.45;;;1.05;;
77076;SDS011;66003;52.286;104.306;2023-04-01T05:30:49;2.00;;;0.85;;
77076;SDS011;66003;52.286;104.306;2023-04-01T05:33:16;4.82;;;1.13;;
77076;SDS011;66003;52.286;104.306;2023-04-01T05:35:42;0.95;;;0.65;;
77076;SDS011;66003;52.286;104.306;2023-04-01T05:38:08;0.90;;;0.80;;
77076;SDS011;66003;52.286;104.306;2023-04-01T05:40:34;0.95;;;0.55;;
77076;SDS011;66003;52.286;104.306;2023-04-01T05:43:00;1.52;;;0.68;;
77076;SDS011;66003;52.286;104.306;2023-04-01T05:45:26;1.55;;;0.65;;
77076;SDS011;66003;52.286;104.306;2023-04-01T05:47:53;0.40;;;0.40;;
77076;SDS011;66003;52.286;104.306;2023-04-01T05:50:19;1.92;;;0.95;;
77076;SDS011;66003;52.286;104.306;2023-04-01T05:52:45;1.83;;;0.68;;
77076;SDS011;66003;52.286;104.306;2023-04-01T05:55:12;1.42;;;0.57;;
77076;SDS011;66003;52.286;104.306;2023-04-01T05:57:38;0.35;;;0.35;;
77076;SDS011;66003;52.286;104.306;2023-04-01T06:00:05;1.63;;;0.95;;
77076;SDS011;66003;52.286;104.306;2023-04-01T06:02:32;0.80;;;0.57;;
77076;SDS011;66003;52.286;104.306;2023-04-01T06:07:48;1.20;;;0.40;;
77076;SDS011;66003;52.286;104.306;2023-04-01T06:10:32;1.55;;;1.40;;
77076;SDS011;66003;52.286;104.306;2023-04-01T06:15:48;1.27;;;0.65;;
77076;SDS011;66003;52.286;104.306;2023-04-01T06:18:39;1.17;;;0.45;;
77076;SDS011;66003;52.286;104.306;2023-04-01T06:21:22;0.95;;;0.80;;
77076;SDS011;66003;52.286;104.306;2023-04-01T06:44:27;1.60;;;0.68;;
77076;SDS011;66003;52.286;104.306;2023-04-01T06:46:58;7.25;;;2.38;;
77076;SDS011;66003;52.286;104.306;2023-04-01T06:54:55;5.40;;;1.67;;
77076;SDS011;66003;52.286;104.306;2023-04-01T06:57:42;2.45;;;1.02;;
77076;SDS011;66003;52.286;104.306;2023-04-01T07:00:35;3.65;;;1.13;;
77076;SDS011;66003;52.286;104.306;2023-04-01T07:03:05;3.08;;;1.10;;
77076;SDS011;66003;52.286;104.306;2023-04-01T07:05:51;1.15;;;0.63;;
77076;SDS011;66003;52.286;104.306;2023-04-01T07:08:20;1.63;;;1.00;;
77076;SDS011;66003;52.286;104.306;2023-04-01T07:11:01;1.38;;;0.55;;
77076;SDS011;66003;52.286;104.306;2023-04-01T07:13:48;0.98;;;0.52;;
77076;SDS011;66003;52.286;104.306;2023-04-01T07:18:46;1.50;;;0.57;;
77076;SDS011;66003;52.286;104.306;2023-04-01T07:21:22;1.65;;;1.55;;
77076;SDS011;66003;52.286;104.306;2023-04-01T07:23:52;1.40;;;0.68;;
77076;SDS011;66003;52.286;104.306;2023-04-01T07:26:24;0.80;;;0.50;;
77076;SDS011;66003;52.286;104.306;2023-04-01T07:28:52;4.03;;;0.47;;
77076;SDS011;66003;52.286;104.306;2023-04-01T07:31:25;2.13;;;0.80;;
77076;SDS011;66003;52.286;104.306;2023-04-01T07:37:02;1.00;;;0.88;;
77076;SDS011;66003;52.286;104.306;2023-04-01T07:39:57;0.52;;;0.45;;
77076;SDS011;66003;52.286;104.306;2023-04-01T07:50:47;0.85;;;0.73;;
77076;SDS011;66003;52.286;104.306;2023-04-01T07:56:13;1.75;;;1.65;;
77076;SDS011;66003;52.286;104.306;2023-04-01T08:04:26;0.75;;;0.55;;
77076;SDS011;66003;52.286;104.306;2023-04-01T08:25:53;2.13;;;0.52;;
77076;SDS011;66003;52.286;104.306;2023-04-01T08:31:09;1.38;;;0.70;;
77076;SDS011;66003;52.286;104.306;2023-04-01T08:33:37;0.60;;;0.32;;
77076;SDS011;66003;52.286;104.306;2023-04-01T08:36:10;1.15;;;1.02;;
77076;SDS011;66003;52.286;104.306;2023-04-01T08:38:44;1.00;;;0.98;;
77076;SDS011;66003;52.286;104.306;2023-04-01T09:07:46;1.08;;;0.88;;
77076;SDS011;66003;52.286;104.306;2023-04-01T09:10:29;1.92;;;0.70;;
77076;SDS011;66003;52.286;104.306;2023-04-01T09:16:09;3.40;;;1.42;;
77076;SDS011;66003;52.286;104.306;2023-04-01T09:18:55;2.33;;;0.50;;
77076;SDS011;66003;52.286;104.306;2023-04-01T09:34:51;1.38;;;0.47;;
77076;SDS011;66003;52.286;104.306;2023-04-01T09:37:33;2.35;;;1.40;;
77076;SDS011;66003;52.286;104.306;2023-04-01T09:40:16;1.33;;;0.80;;
77076;SDS011;66003;52.286;104.306;2023-04-01T10:17:22;4.68;;;1.40;;
77076;SDS011;66003;52.286;104.306;2023-04-01T10:23:13;1.15;;;0.77;;
77076;SDS011;66003;52.286;104.306;2023-04-01T10:39:17;1.05;;;0.95;;
77076;SDS011;66003;52.286;104.306;2023-04-01T11:28:49;1.70;;;1.08;;
77076;SDS011;66003;52.286;104.306;2023-04-01T11:31:04;5.13;;;2.10;;
77076;SDS011;66003;52.286;104.306;2023-04-01T11:44:34;0.60;;;0.45;;
77076;SDS011;66003;52.286;104.306;2023-04-01T11:47:19;1.50;;;1.08;;
77076;SDS011;66003;52.286;104.306;2023-04-01T11:55:44;1.92;;;1.05;;
77076;SDS011;66003;52.286;104.306;2023-04-01T12:06:02;2.63;;;1.55;;
77076;SDS011;66003;52.286;104.306;2023-04-01T12:08:41;4.07;;;2.63;;
77076;SDS011;66003;52.286;104.306;2023-04-01T12:16:57;3.50;;;1.20;;
77076;SDS011;66003;52.286;104.306;2023-04-01T12:20:20;4.07;;;2.33;;
77076;SDS011;66003;52.286;104.306;2023-04-01T12:23:17;3.28;;;1.25;;
77076;SDS011;66003;52.286;104.306;2023-04-01T12:26:39;3.67;;;2.47;;
77076;SDS011;66003;52.286;104.306;2023-04-01T12:31:46;1.90;;;1.15;;
77076;SDS011;66003;52.286;104.306;2023-04-01T12:39:56;2.40;;;1.65;;
77076;SDS011;66003;52.286;104.306;2023-04-01T12:45:31;3.60;;;1.23;;
77076;SDS011;66003;52.286;104.306;2023-04-01T12:55:51;7.38;;;2.90;;
77076;SDS011;66003;52.286;104.306;2023-04-01T13:09:29;6.25;;;2.50;;
77076;SDS011;66003;52.286;104.306;2023-04-01T13:25:44;2.72;;;1.98;;
77076;SDS011;66003;52.286;104.306;2023-04-01T13:28:31;3.08;;;1.70;;
77076;SDS011;66003;52.286;104.306;2023-04-01T13:34:13;9.05;;;2.17;;
77076;SDS011;66003;52.286;104.306;2023-04-01T13:36:59;2.13;;;1.73;;
77076;SDS011;66003;52.286;104.306;2023-04-01T13:45:29;4.00;;;3.67;;
77076;SDS011;66003;52.286;104.306;2023-04-01T13:51:24;4.13;;;1.23;;
77076;SDS011;66003;52.286;104.306;2023-04-01T13:54:08;2.08;;;1.08;;
77076;SDS011;66003;52.286;104.306;2023-04-01T14:07:32;5.75;;;2.33;;
77076;SDS011;66003;52.286;104.306;2023-04-01T14:16:26;0.90;;;0.90;;
77076;SDS011;66003;52.286;104.306;2023-04-01T14:19:11;3.42;;;1.75;;
77076;SDS011;66003;52.286;104.306;2023-04-01T14:27:41;2.95;;;1.55;;
77076;SDS011;66003;52.286;104.306;2023-04-01T14:35:32;5.38;;;1.98;;
77076;SDS011;66003;52.286;104.306;2023-04-01T14:40:51;4.45;;;2.58;;
77076;SDS011;66003;52.286;104.306;2023-04-01T14:43:22;3.35;;;1.77;;
77076;SDS011;66003;52.286;104.306;2023-04-01T14:48:58;3.13;;;1.70;;
77076;SDS011;66003;52.286;104.306;2023-04-01T14:54:04;3.38;;;1.67;;
77076;SDS011;66003;52.286;104.306;2023-04-01T14:57:16;2.75;;;1.88;;
77076;SDS011;66003;52.286;104.306;2023-04-01T15:00:00;3.40;;;1.83;;
77076;SDS011;66003;52.286;104.306;2023-04-01T15:13:42;0.98;;;0.90;;
77076;SDS011;66003;52.286;104.306;2023-04-01T15:28:08;1.40;;;0.70;;
77076;SDS011;66003;52.286;104.306;2023-04-01T15:44:42;5.80;;;1.73;;
77076;SDS011;66003;52.286;104.306;2023-04-01T15:47:33;1.73;;;1.35;;
77076;SDS011;66003;52.286;104.306;2023-04-01T15:58:51;4.38;;;2.03;;
77076;SDS011;66003;52.286;104.306;2023-04-01T16:12:42;2.63;;;1.52;;
77076;SDS011;66003;52.286;104.306;2023-04-01T16:23:25;2.00;;;1.67;;
77076;SDS011;66003;52.286;104.306;2023-04-01T16:32:18;7.38;;;3.45;;
77076;SDS011;66003;52.286;104.306;2023-04-01T16:43:15;2.08;;;1.27;;
77076;SDS011;66003;52.286;104.306;2023-04-01T16:51:25;2.45;;;1.60;;
77076;SDS011;66003;52.286;104.306;2023-04-01T16:54:05;3.38;;;1.40;;
77076;SDS011;66003;52.286;104.306;2023-04-01T16:59:58;4.88;;;1.83;;
77076;SDS011;66003;52.286;104.306;2023-04-01T17:02:49;5.57;;;2.33;;
77076;SDS011;66003;52.286;104.306;2023-04-01T17:05:35;2.00;;;1.35;;
77076;SDS011;66003;52.286;104.306;2023-04-01T17:10:45;5.47;;;2.33;;
77076;SDS011;66003;52.286;104.306;2023-04-01T17:16:07;2.08;;;1.45;;
77076;SDS011;66003;52.286;104.306;2023-04-01T17:18:51;1.30;;;0.85;;
77076;SDS011;66003;52.286;104.306;2023-04-01T17:22:07;2.78;;;1.20;;
77076;SDS011;66003;52.286;104.306;2023-04-01T17:24:29;5.50;;;2.47;;
77076;SDS011;66003;52.286;104.306;2023-04-01T17:35:06;2.13;;;1.65;;
77076;SDS011;66003;52.286;104.306;2023-04-01T17:45:33;2.20;;;1.23;;
77076;SDS011;66003;52.286;104.306;2023-04-01T17:59:16;3.22;;;2.35;;
77076;SDS011;66003;52.286;104.306;2023-04-01T18:02:06;2.72;;;2.50;;
77076;SDS011;66003;52.286;104.306;2023-04-01T18:10:04;1.13;;;1.08;;
77076;SDS011;66003;52.286;104.306;2023-04-01T18:13:00;3.58;;;2.47;;
77076;SDS011;66003;52.286;104.306;2023-04-01T18:18:53;2.15;;;1.40;;
77076;SDS011;66003;52.286;104.306;2023-04-01T18:21:29;3.28;;;1.75;;
77076;SDS011;66003;52.286;104.306;2023-04-01T18:23:58;1.48;;;0.90;;
77076;SDS011;66003;52.286;104.306;2023-04-01T18:26:33;5.07;;;1.88;;
77076;SDS011;66003;52.286;104.306;2023-04-01T18:29:13;3.85;;;1.77;;
77076;SDS011;66003;52.286;104.306;2023-04-01T18:38:16;4.80;;;1.80;;
77076;SDS011;66003;52.286;104.306;2023-04-01T18:49:20;3.70;;;1.38;;
77076;SDS011;66003;52.286;104.306;2023-04-01T18:51:58;1.35;;;0.73;;
77076;SDS011;66003;52.286;104.306;2023-04-01T18:54:45;2.72;;;1.70;;
77076;SDS011;66003;52.286;104.306;2023-04-01T18:57:16;3.45;;;2.10;;
77076;SDS011;66003;52.286;104.306;2023-04-01T19:05:17;4.38;;;2.10;;
77076;SDS011;66003;52.286;104.306;2023-04-01T19:07:48;13.13;;;2.95;;
77076;SDS011;66003;52.286;104.306;2023-04-01T19:16:21;3.47;;;1.70;;
77076;SDS011;66003;52.286;104.306;2023-04-01T19:30:24;1.80;;;1.70;;
77076;SDS011;66003;52.286;104.306;2023-04-01T19:38:26;1.70;;;1.65;;
77076;SDS011;66003;52.286;104.306;2023-04-01T19:43:53;2.40;;;2.03;;
77076;SDS011;66003;52.286;104.306;2023-04-01T19:46:53;1.38;;;1.27;;
77076;SDS011;66003;52.286;104.306;2023-04-01T20:00:24;0.95;;;0.95;;
77076;SDS011;66003;52.286;104.306;2023-04-01T20:14:43;1.33;;;1.33;;
77076;SDS011;66003;52.286;104.306;2023-04-01T20:22:38;1.75;;;1.30;;
77076;SDS011;66003;52.286;104.306;2023-04-01T20:25:49;1.10;;;1.10;;
77076;SDS011;66003;52.286;104.306;2023-04-01T20:28:27;5.68;;;2.75;;
77076;SDS011;66003;52.286;104.306;2023-04-01T20:36:34;1.75;;;1.40;;
77076;SDS011;66003;52.286;104.306;2023-04-01T21:04:18;3.50;;;2.13;;
77076;SDS011;66003;52.286;104.306;2023-04-01T21:09:53;0.93;;;0.90;;
77076;SDS011;66003;52.286;104.306;2023-04-01T21:23:02;2.28;;;1.25;;
77076;SDS011;66003;52.286;104.306;2023-04-01T21:28:16;1.73;;;1.10;;
77076;SDS011;66003;52.286;104.306;2023-04-01T21:39:20;5.10;;;1.05;;
77076;SDS011;66003;52.286;104.306;2023-04-01T21:44:56;1.75;;;1.10;;
77076;SDS011;66003;52.286;104.306;2023-04-01T21:59:16;1.13;;;1.13;;
77076;SDS011;66003;52.286;104.306;2023-04-01T22:22:01;2.83;;;1.83;;
77076;SDS011;66003;52.286;104.306;2023-04-01T22:24:54;4.55;;;2.40;;
77076;SDS011;66003;52.286;104.306;2023-04-01T22:27:54;4.05;;;1.35;;
77076;SDS011;66003;52.286;104.306;2023-04-01T22:30:33;4.45;;;1.02;;
77076;SDS011;66003;52.286;104.306;2023-04-01T22:36:09;5.40;;;2.08;;
77076;SDS011;66003;52.286;104.306;2023-04-01T22:44:00;3.30;;;2.13;;
77076;SDS011;66003;52.286;104.306;2023-04-01T22:46:42;2.92;;;1.85;;
77076;SDS011;66003;52.286;104.306;2023-04-01T22:49:15;2.58;;;1.65;;
77076;SDS011;66003;52.286;104.306;2023-04-01T22:51:55;2.20;;;1.77;;
77076;SDS011;66003;52.286;104.306;2023-04-01T22:54:37;3.75;;;2.00;;
77076;SDS011;66003;52.286;104.306;2023-04-01T23:02:26;5.88;;;2.97;;
77076;SDS011;66003;52.286;104.306;2023-04-01T23:05:00;5.82;;;2.78;;
77076;SDS011;66003;52.286;104.306;2023-04-01T23:07:36;2.80;;;2.55;;
77076;SDS011;66003;52.286;104.306;2023-04-01T23:13:25;7.30;;;2.65;;
77076;SDS011;66003;52.286;104.306;2023-04-01T23:15:57;12.20;;;3.22;;
77076;SDS011;66003;52.286;104.306;2023-04-01T23:18:25;3.08;;;1.67;;
77076;SDS011;66003;52.286;104.306;2023-04-01T23:29:02;2.85;;;1.88;;
77076;SDS011;66003;52.286;104.306;2023-04-01T23:31:31;5.07;;;2.67;;
77076;SDS011;66003;52.286;104.306;2023-04-01T23:34:20;3.60;;;1.73;;
77076;SDS011;66003;52.286;104.306;2023-04-01T23:37:13;3.95;;;2.33;;
77076;SDS011;66003;52.286;104.306;2023-04-01T23:39:53;5.35;;;1.92;;
77076;SDS011;66003;52.286;104.306;2023-04-01T23:42:25;6.65;;;1.08;;
77076;SDS011;66003;52.286;104.306;2023-04-01T23:45:00;5.72;;;2.72;;
77076;SDS011;66003;52.286;104.306;2023-04-01T23:47:33;3.63;;;2.03;;
77076;SDS011;66003;52.286;104.306;2023-04-01T23:50:23;4.97;;;1.70;;
77076;SDS011;66003;52.286;104.306;2023-04-01T23:52:57;4.35;;;1.83;;
77076;SDS011;66003;52.286;104.306;2023-04-01T23:55:32;4.45;;;2.05;;
